Erwinville, LA

2:20 PM CDT on September 01, 2015 (GMT -0500)
Erwinville | | Change Station
CLOSE
Current Station
Personal Weather Station
Location: Erwinville, LA
Elevation: 30 ft
Nearby Weather Stations

Elev 30 ft 30.53 °N, 91.41 °W | Updated 3 seconds ago

Partly Cloudy
Partly Cloudy
91.9 °F
Feels Like 101 °F
N
2.0
Wind Variable Wind from SSE
Gusts 7.0 mph

Today
High -- | Low -- °F
--% Chance of Precip.
Yesterday
High -- | Low -- °F
Precip. -- in
6:42 AM 7:28 PM
Waning Gibbous, 87% visible
Pressure 30.05 in
Visibility 10.0 miles
Clouds Mostly Cloudy 4500 ft
Scattered Clouds 6000 ft
Mostly Cloudy 6500 ft
Heat Index 101 °F
Dew Point 73 °F
Humidity 55%
Rainfall 0.01 in
Snow Depth Not available.
UV 6 out of 12
Pollen 8.10 out of 12
Air Quality Not available.
Flu Activity Not available.
METAR KHZR 011855Z AUTO 11003KT 10SM BKN045 SCT060 BKN065 31/20 A3005 RMK AO2 T03100204
Pressure 30.05 in
Visibility 10.0 miles
Clouds Mostly Cloudy 4500 ft
Scattered Clouds 6000 ft
Mostly Cloudy 6500 ft
Heat Index 101 °F
Dew Point 73 °F
Humidity 55%
Rainfall 0.01 in
Snow Depth Not available.
UV 6 out of 12
Pollen 8.10 out of 12
Air Quality Not available.
Flu Activity Not available.
METAR KHZR 011855Z AUTO 11003KT 10SM BKN045 SCT060 BKN065 31/20 A3005 RMK AO2 T03100204

10-Day Weather Forecast

×

Almanac

Astronomy

Sep. 01, 2015 Rise Set
Actual Time
Civil Twilight
Nautical Twilight
Astronomical Twilight
Moon
Length of Visible Light
Length of Day
Tomorrow will be .
, % of the Moon is Illuminated

Today's Extremes

State Highs State Lows

Community

WunderPhotos

Upload Photos

1,851,596 photos uploaded!

WunderBlogs® & News

Nearby

Air Quality

  Air Quality AQ Index Pollutant
Not available.

Snow Depth

Station Depth Elevation

Earthquake Activity

City Distance Mag. Time & Date
Minimum magnitude displayed is 2.5.

Coastal Water Temperatures

Place Temperature

Stations

Nearby Weather Stations

Station Location Temp. Windchill Dew Point Humidity Wind Precip. Elev Updated Type